METAR Data
IDs: Format: Raw Decoded Include TAF

Data at: 0209 UTC 25 Feb 2021

LRSM 250200Z AUTO 00000KT 4700 R19/1600VP2000D BR NCD 00/M00 Q1035